Barrett Parkway, Georgia
Current Conditions -  °F | °C
As of 10:47 PM on Friday 19 Dec 2014 (Local Time) from KRYY Reporting Station
Drizzle Drizzle  
Wind Chill: 43°   Ceiling: 7000
Heat Index: 43°   Visibility: 10mi
Dew Point: 30°   Wind: 0mph
Humidity: 61%   Direction: NA
Pressure: 30.18"   Gusts: NA
Location:  34.0374°N, 84.5922°W
Report Text: KRYY 200347Z 00000KT 10SM -DZ OVC070 06/M01 A3018
Loading
Personal Weather Stations






























Interactive Weather Map New forecast layout! Learn more

10-Day Weather Forecast

Advertisements
Track Severe Weather on mobile